createdAt,value
2017-09-11T00:00:05.100Z,990.51
2017-09-11T00:01:05.082Z,990.45
2017-09-11T00:02:05.060Z,990.44
2017-09-11T00:03:05.041Z,990.44
2017-09-11T00:04:05.030Z,990.37
2017-09-11T00:05:05.010Z,990.4
2017-09-11T00:06:04.993Z,990.37
2017-09-11T00:07:04.973Z,990.34
2017-09-11T00:08:04.960Z,990.33
2017-09-11T00:09:04.938Z,990.32
2017-09-11T00:10:04.917Z,990.26
2017-09-11T00:11:04.899Z,990.21
2017-09-11T00:12:04.912Z,990.2
2017-09-11T00:13:04.871Z,990.22
2017-09-11T00:14:04.851Z,990.22
2017-09-11T00:15:04.831Z,990.18
2017-09-11T00:16:04.810Z,990.08
2017-09-11T00:17:04.791Z,990.09
2017-09-11T00:18:04.781Z,990.08
2017-09-11T00:19:04.761Z,990.07
2017-09-11T00:20:04.740Z,989.97
2017-09-11T00:21:04.721Z,989.91
2017-09-11T00:22:04.713Z,989.96
2017-09-11T00:23:04.685Z,989.99
2017-09-11T00:24:04.673Z,990.04
2017-09-11T00:25:04.648Z,989.94
2017-09-11T00:26:04.631Z,989.9
2017-09-11T00:27:04.615Z,989.91
2017-09-11T00:28:04.602Z,989.93
2017-09-11T00:29:04.589Z,989.92
2017-09-11T00:30:04.561Z,989.9
2017-09-11T00:31:04.538Z,989.96
2017-09-11T00:32:04.530Z,989.98
2017-09-11T00:33:04.505Z,989.93
2017-09-11T00:34:04.484Z,989.9
2017-09-11T00:35:04.471Z,989.87
2017-09-11T00:36:04.449Z,989.92
2017-09-11T00:37:04.436Z,989.89
2017-09-11T00:38:04.412Z,989.94
2017-09-11T00:39:04.396Z,990
2017-09-11T00:40:04.380Z,989.93
2017-09-11T00:41:04.360Z,989.97
2017-09-11T00:42:04.341Z,989.95
2017-09-11T00:43:04.326Z,989.94
2017-09-11T00:44:04.308Z,989.95
2017-09-11T00:45:04.294Z,989.97
2017-09-11T00:46:04.271Z,989.95
2017-09-11T00:47:04.257Z,989.98
2017-09-11T00:48:04.240Z,989.97
2017-09-11T00:49:04.216Z,989.9
2017-09-11T00:50:04.202Z,989.89
2017-09-11T00:51:04.180Z,989.83
2017-09-11T00:52:04.168Z,989.85
2017-09-11T00:53:04.148Z,989.85
2017-09-11T00:54:04.130Z,989.88
2017-09-11T00:55:04.110Z,989.81
2017-09-11T00:56:04.090Z,989.77
2017-09-11T00:57:04.074Z,989.78
2017-09-11T00:58:04.066Z,989.77
2017-09-11T00:59:04.040Z,989.75
2017-09-11T01:00:04.022Z,989.7
2017-09-11T01:01:04.005Z,989.74
2017-09-11T01:02:03.992Z,989.72
2017-09-11T01:03:03.970Z,989.78
2017-09-11T01:04:03.948Z,989.76
2017-09-11T01:05:03.930Z,989.78
2017-09-11T01:06:03.919Z,989.77
2017-09-11T01:07:03.895Z,989.72
2017-09-11T01:08:03.880Z,989.75
2017-09-11T01:09:03.860Z,989.84
2017-09-11T01:10:03.840Z,989.74
2017-09-11T01:11:03.831Z,989.72
2017-09-11T01:12:03.806Z,989.7
2017-09-11T01:13:03.785Z,989.73
2017-09-11T01:14:03.767Z,989.66
2017-09-11T01:15:03.758Z,989.74
2017-09-11T01:16:03.739Z,989.73
2017-09-11T01:17:03.711Z,989.67
2017-09-11T01:18:03.698Z,989.7
2017-09-11T01:19:03.679Z,989.69
2017-09-11T01:20:03.660Z,989.74
2017-09-11T01:21:03.641Z,989.67
2017-09-11T01:22:03.626Z,989.69
2017-09-11T01:23:03.610Z,989.69
2017-09-11T01:24:03.589Z,989.61
2017-09-11T01:25:03.572Z,989.64
2017-09-11T01:26:03.551Z,989.7
2017-09-11T01:27:03.540Z,989.67
2017-09-11T01:28:03.516Z,989.62
2017-09-11T01:29:03.497Z,989.62
2017-09-11T01:30:03.482Z,989.62
2017-09-11T01:31:03.461Z,989.59
2017-09-11T01:32:03.447Z,989.62
2017-09-11T01:33:03.428Z,989.57
2017-09-11T01:34:03.410Z,989.56
2017-09-11T01:35:03.390Z,989.51
2017-09-11T01:36:03.379Z,989.54
2017-09-11T01:37:03.359Z,989.57
2017-09-11T01:38:03.343Z,989.57
2017-09-11T01:39:03.322Z,989.53
2017-09-11T01:40:03.299Z,989.54
2017-09-11T01:41:03.284Z,989.56
2017-09-11T01:42:03.270Z,989.57
2017-09-11T01:43:03.249Z,989.51
2017-09-11T01:44:03.229Z,989.51
2017-09-11T01:45:03.211Z,989.51
2017-09-11T01:46:03.198Z,989.58
2017-09-11T01:47:03.176Z,989.56
2017-09-11T01:48:03.162Z,989.53
2017-09-11T01:49:03.167Z,989.62
2017-09-11T01:50:03.128Z,989.55
2017-09-11T01:51:03.104Z,989.6
2017-09-11T01:52:03.089Z,989.6
2017-09-11T01:53:03.068Z,989.5
2017-09-11T01:54:03.051Z,989.57
2017-09-11T01:55:03.037Z,989.56
2017-09-11T01:56:03.020Z,989.55
2017-09-11T01:57:03.000Z,989.5
2017-09-11T01:58:02.981Z,989.5
2017-09-11T01:59:02.964Z,989.48
2017-09-11T02:00:02.949Z,989.52
2017-09-11T02:01:02.927Z,989.46
2017-09-11T02:02:02.906Z,989.43
2017-09-11T02:03:02.891Z,989.44
2017-09-11T02:04:02.871Z,989.41
2017-09-11T02:05:02.859Z,989.3
2017-09-11T02:06:02.839Z,989.33
2017-09-11T02:07:02.817Z,989.33
2017-09-11T02:08:02.804Z,989.33
2017-09-11T02:09:02.788Z,989.33
2017-09-11T02:10:02.779Z,989.26
2017-09-11T02:11:02.750Z,989.3
2017-09-11T02:12:02.728Z,989.22
2017-09-11T02:13:02.708Z,989.33
2017-09-11T02:14:02.701Z,989.32
2017-09-11T02:15:02.673Z,989.27
2017-09-11T02:16:02.658Z,989.3
2017-09-11T02:17:02.639Z,989.28
2017-09-11T02:18:02.620Z,989.19
2017-09-11T02:19:02.609Z,989.16
2017-09-11T02:20:02.589Z,989.19
2017-09-11T02:21:02.572Z,989.14
2017-09-11T02:22:02.551Z,989.12
2017-09-11T02:23:02.540Z,989.12
2017-09-11T02:24:02.514Z,989.16
2017-09-11T02:25:02.498Z,989.17
2017-09-11T02:26:02.481Z,989.15
2017-09-11T02:27:02.471Z,989.12
2017-09-11T02:28:02.442Z,989.17
2017-09-11T02:29:02.422Z,989.17
2017-09-11T02:30:02.410Z,989.09
2017-09-11T02:31:02.390Z,989.07
2017-09-11T02:32:02.369Z,989.12
2017-09-11T02:33:02.359Z,989.09
2017-09-11T02:34:02.340Z,989.05
2017-09-11T02:35:02.317Z,989.1
2017-09-11T02:36:02.302Z,989.06
2017-09-11T02:37:02.279Z,989.11
2017-09-11T02:38:02.267Z,989.07
2017-09-11T02:39:02.250Z,989.05
2017-09-11T02:40:02.231Z,989.03
2017-09-11T02:41:02.222Z,989.03
2017-09-11T02:42:02.192Z,988.98
2017-09-11T02:43:02.180Z,989
2017-09-11T02:44:02.155Z,988.98
2017-09-11T02:45:02.138Z,988.92
2017-09-11T02:46:02.122Z,988.92
2017-09-11T02:47:02.100Z,988.88
2017-09-11T02:48:02.093Z,988.91
2017-09-11T02:49:02.069Z,988.86
2017-09-11T02:50:02.050Z,988.87
2017-09-11T02:51:02.032Z,988.87
2017-09-11T02:52:02.027Z,988.87
2017-09-11T02:53:01.994Z,988.85
2017-09-11T02:54:01.977Z,988.84
2017-09-11T02:55:01.960Z,988.83
2017-09-11T02:56:01.939Z,988.73
2017-09-11T02:57:01.924Z,988.77
2017-09-11T02:58:01.910Z,988.72
2017-09-11T02:59:01.900Z,988.71
2017-09-11T03:00:01.872Z,988.69
2017-09-11T03:01:01.850Z,988.65
2017-09-11T03:02:01.830Z,988.65
2017-09-11T03:03:01.820Z,988.69
2017-09-11T03:04:01.799Z,988.69
2017-09-11T03:05:01.780Z,988.65
2017-09-11T03:06:01.790Z,988.58
2017-09-11T03:07:01.743Z,988.68
2017-09-11T03:08:01.726Z,988.6
2017-09-11T03:09:01.707Z,988.7
2017-09-11T03:10:01.686Z,988.69
2017-09-11T03:11:01.669Z,988.65
2017-09-11T03:12:01.660Z,988.63
2017-09-11T03:13:01.635Z,988.65
2017-09-11T03:14:01.627Z,988.65
2017-09-11T03:15:01.602Z,988.65
2017-09-11T03:16:01.588Z,988.75
2017-09-11T03:17:01.562Z,988.66
2017-09-11T03:18:01.546Z,988.67
2017-09-11T03:19:01.524Z,988.61
2017-09-11T03:20:01.511Z,988.63
2017-09-11T03:21:01.489Z,988.67
2017-09-11T03:22:01.562Z,988.69
2017-09-11T03:23:01.460Z,988.73
2017-09-11T03:24:01.544Z,988.61
2017-09-11T03:25:01.421Z,988.61
2017-09-11T03:26:01.412Z,988.58
2017-09-11T03:27:01.382Z,988.61
2017-09-11T03:28:01.367Z,988.58
2017-09-11T03:29:01.352Z,988.59
2017-09-11T03:30:01.413Z,988.54
2017-09-11T03:31:01.312Z,988.49
2017-09-11T03:32:01.299Z,988.57
2017-09-11T03:33:01.284Z,988.6
2017-09-11T03:34:01.257Z,988.66
2017-09-11T03:35:01.240Z,988.6
2017-09-11T03:36:01.229Z,988.53
2017-09-11T03:37:01.211Z,988.56
2017-09-11T03:38:01.191Z,988.52
2017-09-11T03:39:01.170Z,988.52
2017-09-11T03:40:01.157Z,988.53
2017-09-11T03:41:01.130Z,988.57
2017-09-11T03:42:01.120Z,988.56
2017-09-11T03:43:01.099Z,988.57
2017-09-11T03:44:01.081Z,988.56
2017-09-11T03:45:01.059Z,988.64
2017-09-11T03:46:01.112Z,988.62
2017-09-11T03:47:01.030Z,988.58
2017-09-11T03:48:01.005Z,988.63
2017-09-11T03:49:00.991Z,988.53
2017-09-11T03:50:00.970Z,988.57
2017-09-11T03:51:00.953Z,988.56
2017-09-11T03:52:00.942Z,988.49
2017-09-11T03:53:00.921Z,988.47
2017-09-11T03:54:00.897Z,988.49
2017-09-11T03:55:00.876Z,988.5
2017-09-11T03:56:00.859Z,988.42
2017-09-11T03:57:00.846Z,988.49
2017-09-11T03:58:00.833Z,988.53
2017-09-11T03:59:00.810Z,988.54
2017-09-11T04:00:00.789Z,988.54
2017-09-11T04:01:00.772Z,988.63
2017-09-11T04:02:00.754Z,988.56
2017-09-11T04:03:00.739Z,988.61
2017-09-11T04:04:00.720Z,988.64
2017-09-11T04:05:00.699Z,988.69
2017-09-11T04:06:00.683Z,988.66
2017-09-11T04:07:00.694Z,988.64
2017-09-11T04:08:00.646Z,988.65
2017-09-11T04:09:00.630Z,988.7
2017-09-11T04:10:00.611Z,988.7
2017-09-11T04:11:00.595Z,988.74
2017-09-11T04:12:00.578Z,988.69
2017-09-11T04:13:00.559Z,988.69
2017-09-11T04:14:00.539Z,988.7
2017-09-11T04:15:00.529Z,988.7
2017-09-11T04:16:00.504Z,988.78
2017-09-11T04:17:00.488Z,988.69
2017-09-11T04:18:00.470Z,988.73
2017-09-11T04:19:00.449Z,988.66
2017-09-11T04:20:00.438Z,988.68
2017-09-11T04:21:00.420Z,988.67
2017-09-11T04:22:00.399Z,988.68
2017-09-11T04:23:00.382Z,988.73
2017-09-11T04:24:00.370Z,988.71
2017-09-11T04:25:00.343Z,988.7
2017-09-11T04:26:00.326Z,988.69
2017-09-11T04:27:00.309Z,988.69
2017-09-11T04:28:00.290Z,988.67
2017-09-11T04:29:00.269Z,988.65
2017-09-11T04:30:00.254Z,988.6
2017-09-11T04:31:00.239Z,988.59
2017-09-11T04:32:00.219Z,988.67
2017-09-11T04:33:00.199Z,988.62
2017-09-11T04:34:00.178Z,988.64
2017-09-11T04:35:00.162Z,988.64
2017-09-11T04:36:00.151Z,988.58
2017-09-11T04:37:00.125Z,988.64
2017-09-11T04:38:00.109Z,988.63
2017-09-11T04:39:00.090Z,988.64
2017-09-11T04:40:00.121Z,988.67
2017-09-11T04:41:00.058Z,988.64
2017-09-11T04:42:00.052Z,988.68
2017-09-11T04:43:00.021Z,988.69
2017-09-11T04:43:59.999Z,988.66
2017-09-11T04:44:59.980Z,988.71
2017-09-11T04:45:59.970Z,988.7
2017-09-11T04:46:59.945Z,988.66
2017-09-11T04:47:59.927Z,988.63
2017-09-11T04:48:59.910Z,988.71
2017-09-11T04:49:59.890Z,988.72
2017-09-11T04:50:59.870Z,988.69
2017-09-11T04:51:59.853Z,988.76
2017-09-11T04:52:59.840Z,988.68
2017-09-11T04:53:59.820Z,988.77
2017-09-11T04:54:59.801Z,988.74
2017-09-11T04:55:59.789Z,988.75
2017-09-11T04:56:59.758Z,988.78
2017-09-11T04:57:59.799Z,988.76
2017-09-11T04:58:59.728Z,988.75
2017-09-11T04:59:59.709Z,988.77
2017-09-11T05:00:59.689Z,988.76
2017-09-11T05:01:59.668Z,988.72
2017-09-11T05:02:59.654Z,988.71
2017-09-11T05:03:59.685Z,988.71
2017-09-11T05:04:59.617Z,988.7
2017-09-11T05:05:59.599Z,988.64
2017-09-11T05:06:59.579Z,988.64
2017-09-11T05:07:59.611Z,988.62
2017-09-11T05:08:59.543Z,988.56
2017-09-11T05:09:59.575Z,988.58
2017-09-11T05:10:59.509Z,988.66
2017-09-11T05:11:59.495Z,988.6
2017-09-11T05:12:59.472Z,988.63
2017-09-11T05:13:59.455Z,988.63
2017-09-11T05:14:59.440Z,988.63
2017-09-11T05:15:59.417Z,988.61
2017-09-11T05:16:59.401Z,988.69
2017-09-11T05:17:59.380Z,988.65
2017-09-11T05:18:59.369Z,988.66
2017-09-11T05:19:59.349Z,988.68
2017-09-11T05:20:59.328Z,988.66
2017-09-11T05:21:59.308Z,988.68
2017-09-11T05:22:59.289Z,988.69
2017-09-11T05:23:59.268Z,988.69
2017-09-11T05:24:59.253Z,988.64
2017-09-11T05:25:59.237Z,988.64
2017-09-11T05:26:59.220Z,988.66
2017-09-11T05:27:59.200Z,988.67
2017-09-11T05:28:59.182Z,988.65
2017-09-11T05:29:59.165Z,988.72
2017-09-11T05:30:59.150Z,988.7
2017-09-11T05:31:59.127Z,988.74
2017-09-11T05:32:59.110Z,988.74
2017-09-11T05:33:59.088Z,988.77
2017-09-11T05:34:59.071Z,988.81
2017-09-11T05:35:59.054Z,988.81
2017-09-11T05:36:59.040Z,988.84
2017-09-11T05:37:59.021Z,988.83
2017-09-11T05:38:58.999Z,988.88
2017-09-11T05:39:58.988Z,988.82
2017-09-11T05:40:58.963Z,988.82
2017-09-11T05:41:58.944Z,988.78
2017-09-11T05:42:58.927Z,988.8
2017-09-11T05:43:58.911Z,988.74
2017-09-11T05:44:58.900Z,988.78
2017-09-11T05:45:58.876Z,988.68
2017-09-11T05:46:58.858Z,988.62
2017-09-11T05:47:58.840Z,988.62
2017-09-11T05:48:58.817Z,988.64
2017-09-11T05:49:58.800Z,988.55
2017-09-11T05:50:58.786Z,988.56
2017-09-11T05:51:58.762Z,988.54
2017-09-11T05:52:58.750Z,988.51
2017-09-11T05:53:58.728Z,988.55
2017-09-11T05:54:58.712Z,988.68
2017-09-11T05:55:58.691Z,988.72
2017-09-11T05:56:58.683Z,988.8
2017-09-11T05:57:58.659Z,988.82
2017-09-11T05:58:58.642Z,988.87
2017-09-11T05:59:58.621Z,988.89
2017-09-11T06:00:58.606Z,988.89
2017-09-11T06:01:58.582Z,988.89
2017-09-11T06:02:58.566Z,988.95
2017-09-11T06:03:58.549Z,988.95
2017-09-11T06:04:58.530Z,988.93
2017-09-11T06:05:58.522Z,988.96
2017-09-11T06:06:58.498Z,988.98
2017-09-11T06:07:58.482Z,988.97
2017-09-11T06:08:58.459Z,988.95
2017-09-11T06:09:58.439Z,988.93
2017-09-11T06:10:58.427Z,988.91
2017-09-11T06:11:58.419Z,988.93
2017-09-11T06:12:58.384Z,988.98
2017-09-11T06:13:58.370Z,988.93
2017-09-11T06:14:58.352Z,988.93
2017-09-11T06:15:58.339Z,988.93
2017-09-11T06:16:58.317Z,988.93
2017-09-11T06:17:58.299Z,988.93
2017-09-11T06:18:58.288Z,988.9
2017-09-11T06:19:58.268Z,988.92
2017-09-11T06:20:58.249Z,988.9
2017-09-11T06:21:58.230Z,988.92
2017-09-11T06:22:58.219Z,988.92
2017-09-11T06:23:58.202Z,988.89
2017-09-11T06:24:58.179Z,988.86
2017-09-11T06:25:58.159Z,988.84
2017-09-11T06:26:58.135Z,988.85
2017-09-11T06:27:58.122Z,988.89
2017-09-11T06:28:58.100Z,988.88
2017-09-11T06:29:58.082Z,988.96
2017-09-11T06:30:58.069Z,988.89
2017-09-11T06:31:58.048Z,988.86
2017-09-11T06:32:58.027Z,988.87
2017-09-11T06:33:58.018Z,988.9
2017-09-11T06:34:57.999Z,988.85
2017-09-11T06:35:57.975Z,988.77
2017-09-11T06:36:57.959Z,988.78
2017-09-11T06:37:57.938Z,988.75
2017-09-11T06:38:57.927Z,988.76
2017-09-11T06:39:57.907Z,988.79
2017-09-11T06:40:57.886Z,988.77
2017-09-11T06:41:57.870Z,988.8
2017-09-11T06:42:57.848Z,988.8
2017-09-11T06:43:57.831Z,988.79
2017-09-11T06:44:57.818Z,988.75
2017-09-11T06:45:57.801Z,988.71
2017-09-11T06:46:57.782Z,988.72
2017-09-11T06:47:57.770Z,988.76
2017-09-11T06:48:57.752Z,988.74
2017-09-11T06:49:57.725Z,988.77
2017-09-11T06:50:57.711Z,988.77
2017-09-11T06:51:57.696Z,988.77
2017-09-11T06:52:57.676Z,988.77
2017-09-11T06:53:57.661Z,988.74
2017-09-11T06:54:57.639Z,988.77
2017-09-11T06:55:57.620Z,988.73
2017-09-11T06:56:57.599Z,988.73
2017-09-11T06:57:57.585Z,988.74
2017-09-11T06:58:57.570Z,988.76
2017-09-11T06:59:57.549Z,988.75
2017-09-11T07:00:57.530Z,988.74
2017-09-11T07:01:57.511Z,988.75
2017-09-11T07:02:57.492Z,988.79
2017-09-11T07:03:57.473Z,988.77
2017-09-11T07:04:57.460Z,988.82
2017-09-11T07:05:57.439Z,988.87
2017-09-11T07:06:57.421Z,988.83
2017-09-11T07:07:57.399Z,988.85
2017-09-11T07:08:57.382Z,988.8
2017-09-11T07:09:57.368Z,988.91
2017-09-11T07:10:57.349Z,988.98
2017-09-11T07:11:57.334Z,988.87
2017-09-11T07:12:57.310Z,988.84
2017-09-11T07:13:57.297Z,988.85
2017-09-11T07:14:57.279Z,988.88
2017-09-11T07:15:57.251Z,988.94
2017-09-11T07:16:57.238Z,988.97
2017-09-11T07:17:57.216Z,988.95
2017-09-11T07:18:57.205Z,989.02
2017-09-11T07:19:57.181Z,988.99
2017-09-11T07:20:57.170Z,988.99
2017-09-11T07:21:57.148Z,988.98
2017-09-11T07:22:57.129Z,988.98
2017-09-11T07:23:57.119Z,988.99
2017-09-11T07:24:57.094Z,988.98
2017-09-11T07:25:57.080Z,988.98
2017-09-11T07:26:57.069Z,989
2017-09-11T07:27:57.039Z,988.99
2017-09-11T07:28:57.029Z,989.08
2017-09-11T07:29:57.010Z,989.11
2017-09-11T07:30:56.988Z,989.12
2017-09-11T07:31:56.970Z,989.08
2017-09-11T07:32:56.960Z,989.13
2017-09-11T07:33:56.951Z,989.12
2017-09-11T07:34:56.920Z,989.14
2017-09-11T07:35:56.904Z,989.16
2017-09-11T07:36:56.888Z,989.18
2017-09-11T07:37:56.865Z,989.2
2017-09-11T07:38:56.848Z,989.2
2017-09-11T07:39:56.836Z,989.26
2017-09-11T07:40:56.820Z,989.27
2017-09-11T07:41:56.798Z,989.24
2017-09-11T07:42:56.779Z,989.17
2017-09-11T07:43:56.778Z,989.16
2017-09-11T07:44:56.748Z,989.14
2017-09-11T07:45:56.742Z,989.17
2017-09-11T07:46:56.715Z,989.17
2017-09-11T07:47:56.711Z,989.12
2017-09-11T07:48:56.681Z,989.19
2017-09-11T07:49:56.669Z,989.18
2017-09-11T07:50:56.646Z,989.17
2017-09-11T07:51:56.628Z,989.21
2017-09-11T07:52:56.614Z,989.21
2017-09-11T07:53:56.600Z,989.25
2017-09-11T07:54:56.579Z,989.26
2017-09-11T07:55:56.570Z,989.24
2017-09-11T07:56:56.549Z,989.28
2017-09-11T07:57:56.527Z,989.26
2017-09-11T07:58:56.519Z,989.28
2017-09-11T07:59:56.498Z,989.29
2017-09-11T08:00:56.482Z,989.29
2017-09-11T08:01:56.470Z,989.3
2017-09-11T08:02:56.454Z,989.31
2017-09-11T08:03:56.432Z,989.3
2017-09-11T08:04:56.418Z,989.31
2017-09-11T08:05:56.401Z,989.36
2017-09-11T08:06:56.378Z,989.41
2017-09-11T08:07:56.370Z,989.36
2017-09-11T08:08:56.350Z,989.37
2017-09-11T08:09:56.330Z,989.4
2017-09-11T08:10:56.319Z,989.42
2017-09-11T08:11:56.296Z,989.45
2017-09-11T08:12:56.277Z,989.42
2017-09-11T08:13:56.271Z,989.58
2017-09-11T08:14:56.249Z,989.61
2017-09-11T08:15:56.230Z,989.45
2017-09-11T08:16:56.217Z,989.48
2017-09-11T08:17:56.199Z,989.43
2017-09-11T08:18:56.197Z,989.42
2017-09-11T08:19:56.168Z,989.42
2017-09-11T08:20:56.159Z,989.4
2017-09-11T08:21:56.140Z,989.48
2017-09-11T08:22:56.136Z,989.33
2017-09-11T08:23:56.111Z,989.32
2017-09-11T08:24:56.106Z,989.5
2017-09-11T08:25:56.084Z,989.51
2017-09-11T08:26:56.216Z,989.54
2017-09-11T08:27:56.056Z,989.52
2017-09-11T08:28:56.161Z,989.48
2017-09-11T08:29:56.028Z,989.53
2017-09-11T08:30:56.084Z,989.48
2017-09-11T08:31:56.009Z,989.35
2017-09-11T08:32:56.066Z,989.48
2017-09-11T08:33:55.981Z,989.58
2017-09-11T08:34:55.983Z,989.46
2017-09-11T08:35:55.961Z,989.42
2017-09-11T08:36:55.950Z,989.41
2017-09-11T08:37:55.928Z,989.41
2017-09-11T08:38:56.022Z,989.43
2017-09-11T08:39:55.908Z,989.44
2017-09-11T08:40:55.989Z,989.47
2017-09-11T08:41:55.879Z,989.45
2017-09-11T08:42:55.964Z,989.48
2017-09-11T08:43:55.858Z,989.53
2017-09-11T08:44:55.839Z,989.53
2017-09-11T08:45:55.833Z,989.56
2017-09-11T08:46:55.829Z,989.49
2017-09-11T08:47:55.808Z,989.51
2017-09-11T08:48:55.797Z,989.59
2017-09-11T08:49:55.773Z,989.53
2017-09-11T08:50:55.802Z,989.58
2017-09-11T08:51:55.740Z,989.55
2017-09-11T08:52:55.728Z,989.53
2017-09-11T08:53:55.711Z,989.65
2017-09-11T08:54:55.698Z,989.61
2017-09-11T08:55:55.680Z,989.58
2017-09-11T08:56:55.670Z,989.75
2017-09-11T08:57:55.660Z,989.78
2017-09-11T08:58:55.643Z,989.8
2017-09-11T08:59:55.628Z,989.75
2017-09-11T09:00:55.621Z,989.78
2017-09-11T09:01:55.602Z,989.72
2017-09-11T09:02:55.588Z,989.78
2017-09-11T09:03:55.580Z,989.77
2017-09-11T09:04:55.570Z,989.89
2017-09-11T09:05:55.563Z,989.89
2017-09-11T09:06:55.547Z,989.8
2017-09-11T09:07:55.540Z,989.74
2017-09-11T09:08:55.528Z,989.71
2017-09-11T09:09:55.519Z,989.8
2017-09-11T09:10:55.511Z,989.62
2017-09-11T09:11:55.494Z,989.69
2017-09-11T09:12:55.482Z,989.75
2017-09-11T09:13:55.488Z,989.81
2017-09-11T09:14:55.464Z,989.76
2017-09-11T09:15:55.462Z,989.75
2017-09-11T09:16:55.453Z,989.83
2017-09-11T09:17:55.439Z,989.78
2017-09-11T09:18:55.430Z,989.86
2017-09-11T09:19:55.432Z,989.83
2017-09-11T09:20:55.421Z,989.81
2017-09-11T09:21:55.409Z,989.79
2017-09-11T09:22:55.401Z,989.77
2017-09-11T09:23:55.390Z,989.72
2017-09-11T09:24:55.390Z,989.81
2017-09-11T09:25:55.372Z,989.77
2017-09-11T09:26:55.369Z,989.84
2017-09-11T09:27:55.361Z,989.7
2017-09-11T09:28:55.356Z,989.6
2017-09-11T09:29:55.345Z,989.77
2017-09-11T09:30:55.341Z,989.76
2017-09-11T09:31:55.330Z,989.81
2017-09-11T09:32:55.325Z,989.76
2017-09-11T09:33:55.315Z,989.81
2017-09-11T09:34:55.303Z,989.82
2017-09-11T09:35:55.291Z,989.79
2017-09-11T09:36:55.281Z,989.74
2017-09-11T09:37:55.278Z,989.68
2017-09-11T09:38:55.266Z,989.65
2017-09-11T09:39:55.260Z,989.69
2017-09-11T09:40:55.249Z,989.66
2017-09-11T09:41:55.242Z,989.77
2017-09-11T09:42:55.228Z,989.71
2017-09-11T09:43:55.223Z,989.66
2017-09-11T09:44:55.209Z,989.6
2017-09-11T09:45:55.200Z,989.68
2017-09-11T09:46:55.184Z,989.66
2017-09-11T09:47:55.181Z,989.73
2017-09-11T09:48:55.164Z,989.74
2017-09-11T09:49:55.153Z,989.72
2017-09-11T09:50:55.143Z,989.67
2017-09-11T09:51:55.133Z,989.79
2017-09-11T09:52:55.113Z,989.72
2017-09-11T09:53:55.105Z,989.82
2017-09-11T09:54:55.089Z,989.84
2017-09-11T09:55:55.074Z,989.78
2017-09-11T09:56:55.063Z,989.67
2017-09-11T09:57:55.053Z,989.77
2017-09-11T09:58:55.041Z,989.79
2017-09-11T09:59:55.031Z,989.83
2017-09-11T10:00:55.025Z,989.78
2017-09-11T10:01:55.016Z,989.75
2017-09-11T10:02:54.993Z,989.7
2017-09-11T10:03:54.983Z,989.76
2017-09-11T10:04:54.967Z,989.65
2017-09-11T10:05:54.967Z,989.68
2017-09-11T10:06:54.950Z,989.75
2017-09-11T10:07:54.937Z,989.68
2017-09-11T10:08:54.931Z,989.66
2017-09-11T10:09:54.920Z,989.68
2017-09-11T10:10:54.905Z,989.75
2017-09-11T10:11:54.903Z,989.75
2017-09-11T10:12:54.892Z,989.65
2017-09-11T10:13:54.869Z,989.75
2017-09-11T10:14:54.864Z,989.78
2017-09-11T10:15:54.854Z,989.82
2017-09-11T10:16:54.840Z,989.71
2017-09-11T10:17:54.833Z,989.71
2017-09-11T10:18:54.810Z,989.74
2017-09-11T10:19:54.802Z,989.67
2017-09-11T10:20:54.790Z,989.73
2017-09-11T10:21:54.779Z,989.67
2017-09-11T10:22:54.772Z,989.63
2017-09-11T10:23:54.752Z,989.67
2017-09-11T10:24:54.741Z,989.67
2017-09-11T10:25:54.731Z,989.72
2017-09-11T10:26:54.719Z,989.68
2017-09-11T10:27:54.706Z,989.79
2017-09-11T10:28:54.691Z,989.68
2017-09-11T10:29:54.677Z,989.69
2017-09-11T10:30:54.670Z,989.72
2017-09-11T10:31:54.650Z,989.8
2017-09-11T10:32:54.642Z,989.76
2017-09-11T10:33:54.623Z,989.81
2017-09-11T10:34:54.622Z,989.76
2017-09-11T10:35:54.601Z,989.76
2017-09-11T10:36:54.585Z,989.86
2017-09-11T10:37:54.568Z,989.81
2017-09-11T10:38:54.711Z,989.84
2017-09-11T10:39:54.550Z,989.89
2017-09-11T10:40:54.536Z,989.79
2017-09-11T10:41:54.514Z,989.9
2017-09-11T10:42:54.505Z,989.85
2017-09-11T10:43:54.488Z,989.78
2017-09-11T10:44:54.582Z,989.81
2017-09-11T10:45:54.471Z,989.74
2017-09-11T10:46:54.546Z,989.73
2017-09-11T10:47:54.435Z,989.89
2017-09-11T10:48:54.521Z,989.7
2017-09-11T10:49:54.413Z,989.71
2017-09-11T10:50:54.398Z,989.69
2017-09-11T10:51:54.391Z,989.77
2017-09-11T10:52:54.371Z,989.72
2017-09-11T10:53:54.355Z,989.78
2017-09-11T10:54:54.347Z,989.85
2017-09-11T10:55:54.330Z,989.78
2017-09-11T10:56:54.317Z,989.86
2017-09-11T10:57:54.311Z,989.75
2017-09-11T10:58:54.292Z,989.86
2017-09-11T10:59:54.282Z,989.76
2017-09-11T11:00:54.317Z,989.79
2017-09-11T11:01:54.258Z,989.76
2017-09-11T11:02:54.239Z,989.79
2017-09-11T11:03:54.225Z,989.81
2017-09-11T11:04:54.219Z,989.71
2017-09-11T11:05:54.199Z,989.89
2017-09-11T11:06:54.190Z,989.82
2017-09-11T11:07:54.180Z,989.71
2017-09-11T11:08:54.165Z,989.76
2017-09-11T11:09:54.152Z,989.73
2017-09-11T11:10:54.139Z,989.83
2017-09-11T11:11:54.125Z,989.72
2017-09-11T11:12:54.114Z,989.78
2017-09-11T11:13:54.099Z,989.74
2017-09-11T11:14:54.092Z,989.71
2017-09-11T11:15:54.072Z,989.72
2017-09-11T11:16:54.059Z,989.7
2017-09-11T11:17:54.050Z,989.85
2017-09-11T11:18:54.036Z,989.81
2017-09-11T11:19:54.021Z,989.84
2017-09-11T11:20:54.012Z,989.79
2017-09-11T11:21:53.997Z,989.75
2017-09-11T11:22:53.980Z,989.86
2017-09-11T11:23:53.973Z,989.81
2017-09-11T11:24:53.966Z,989.79
2017-09-11T11:25:53.941Z,989.87
2017-09-11T11:26:53.931Z,989.78
2017-09-11T11:27:53.917Z,989.83
2017-09-11T11:28:53.912Z,989.82
2017-09-11T11:29:53.893Z,989.82
2017-09-11T11:30:53.879Z,989.75
2017-09-11T11:31:53.871Z,989.79
2017-09-11T11:32:53.855Z,989.83
2017-09-11T11:33:53.838Z,989.84
2017-09-11T11:34:53.831Z,989.83
2017-09-11T11:35:53.818Z,989.78
2017-09-11T11:36:53.803Z,989.77
2017-09-11T11:37:53.789Z,989.78
2017-09-11T11:38:53.778Z,989.81
2017-09-11T11:39:53.769Z,989.79
2017-09-11T11:40:53.752Z,989.82
2017-09-11T11:41:53.737Z,989.82
2017-09-11T11:42:53.725Z,989.81
2017-09-11T11:43:53.710Z,989.83
2017-09-11T11:44:53.700Z,989.81
2017-09-11T11:45:53.688Z,989.99
2017-09-11T11:46:53.675Z,989.87
2017-09-11T11:47:53.660Z,989.92
2017-09-11T11:48:53.648Z,989.98
2017-09-11T11:49:53.639Z,989.94
2017-09-11T11:50:53.621Z,989.98
2017-09-11T11:51:53.610Z,989.98
2017-09-11T11:52:53.599Z,989.95
2017-09-11T11:53:53.584Z,989.89
2017-09-11T11:54:53.573Z,989.98
2017-09-11T11:55:53.560Z,989.92
2017-09-11T11:56:53.551Z,989.97
2017-09-11T11:57:53.530Z,990.04
2017-09-11T11:58:53.519Z,990
2017-09-11T11:59:53.500Z,989.96
2017-09-11T12:00:53.500Z,990.09
2017-09-11T12:01:53.478Z,989.98
2017-09-11T12:02:53.462Z,990.05
2017-09-11T12:03:53.468Z,990.04
2017-09-11T12:04:53.433Z,990.03
2017-09-11T12:05:53.417Z,990.03
2017-09-11T12:06:53.410Z,990.09
2017-09-11T12:07:53.394Z,989.93
2017-09-11T12:08:53.382Z,989.95
2017-09-11T12:09:53.364Z,989.97
2017-09-11T12:10:53.359Z,989.93
2017-09-11T12:11:53.338Z,989.92
2017-09-11T12:12:53.327Z,989.96
2017-09-11T12:13:53.309Z,989.93
2017-09-11T12:14:53.299Z,990.04
2017-09-11T12:15:53.289Z,989.95
2017-09-11T12:16:53.270Z,989.93
2017-09-11T12:17:53.262Z,989.91
2017-09-11T12:18:53.248Z,989.94
2017-09-11T12:19:53.239Z,989.9
2017-09-11T12:20:53.218Z,989.96
2017-09-11T12:21:53.208Z,989.88
2017-09-11T12:22:53.190Z,989.78
2017-09-11T12:23:53.178Z,989.87
2017-09-11T12:24:53.169Z,989.94
2017-09-11T12:25:53.155Z,989.9
2017-09-11T12:26:53.139Z,989.84
2017-09-11T12:27:53.125Z,989.99
2017-09-11T12:28:53.113Z,989.88
2017-09-11T12:29:53.099Z,989.9